Time;durP1;ratioP1;P1;durP2;ratioP2;P2;SDS_P1;SDS_P2;PMS_P1;PMS_P2;Temp;Humidity;BMP_temperature;BMP_pressure;BME280_temperature;BME280_humidity;BME280_pressure;Samples;Min_cycle;Max_cycle;Signal;HPM_P1;HPM_P2
2021/08/11 00:01:39;;;;;;;8.35;4.90;;;;;;;19.11;71.57;96568.59;5073062;28;20502;-70
2021/08/11 00:04:05;;;;;;;9.25;6.00;;;;;;;19.09;72.19;96565.38;5069902;28;20484;-70
2021/08/11 00:06:33;;;;;;;7.30;5.53;;;;;;;19.11;72.01;96563.84;5072225;28;20049;-69
2021/08/11 00:09:02;;;;;;;9.40;5.78;;;;;;;19.09;72.24;96568.94;5072846;28;20495;-69
2021/08/11 00:11:29;;;;;;;9.25;5.38;;;;;;;19.06;72.48;96571.66;5072269;28;20032;-70
2021/08/11 00:13:56;;;;;;;8.48;5.35;;;;;;;19.03;72.29;96562.91;5072823;28;20052;-70
2021/08/11 00:16:22;;;;;;;7.65;4.88;;;;;;;19.06;72.17;96571.66;5072155;28;20044;-70
2021/08/11 00:18:50;;;;;;;7.25;5.28;;;;;;;19.09;71.14;96577.22;5072856;28;20049;-70
2021/08/11 00:21:16;;;;;;;7.72;5.32;;;;;;;19.09;71.27;96579.16;5072038;28;20056;-70
2021/08/11 00:23:43;;;;;;;11.23;5.70;;;;;;;19.03;71.60;96570.41;5071881;28;20044;-70
2021/08/11 00:26:10;;;;;;;9.40;5.72;;;;;;;19.00;72.16;96573.88;5071842;28;20045;-70
2021/08/11 00:28:37;;;;;;;11.75;5.30;;;;;;;18.96;72.06;96576.59;5072686;28;20052;-70
2021/08/11 00:31:03;;;;;;;9.02;5.15;;;;;;;18.93;71.82;96580.09;5071668;28;20048;-70
2021/08/11 00:33:30;;;;;;;7.53;5.13;;;;;;;18.94;71.99;96576.16;5071956;28;20052;-70
2021/08/11 00:35:56;;;;;;;7.50;5.30;;;;;;;18.95;72.20;96580.53;5072547;28;20045;-70
2021/08/11 00:38:23;;;;;;;9.38;5.10;;;;;;;19.01;71.92;96573.53;5072089;28;20051;-70
2021/08/11 00:40:50;;;;;;;8.32;5.53;;;;;;;19.04;72.02;96578.31;5072547;28;20045;-69
2021/08/11 00:43:18;;;;;;;7.82;5.10;;;;;;;19.11;72.27;96574.91;5071688;28;20392;-70
2021/08/11 00:45:45;;;;;;;7.35;5.07;;;;;;;19.12;72.17;96578.44;5072353;28;20048;-70
2021/08/11 00:48:12;;;;;;;7.47;4.90;;;;;;;19.15;72.47;96581.25;5071846;28;20039;-70
2021/08/11 00:50:39;;;;;;;8.38;5.30;;;;;;;19.14;72.00;96574.13;5072161;28;20048;-70
2021/08/11 00:53:08;;;;;;;8.63;4.88;;;;;;;19.14;71.82;96587.94;5071797;28;20064;-70
2021/08/11 00:55:37;;;;;;;8.18;4.38;;;;;;;19.16;71.16;96587.56;5072206;28;20060;-70
2021/08/11 00:58:07;;;;;;;7.22;4.72;;;;;;;19.14;70.36;96578.88;5071485;28;20045;-70
2021/08/11 01:00:38;;;;;;;7.43;4.50;;;;;;;19.14;70.49;96578.88;5072191;28;20051;-70
2021/08/11 01:03:11;;;;;;;7.55;4.82;;;;;;;19.15;70.67;96585.97;5071681;28;20048;-70
2021/08/11 01:05:39;;;;;;;9.00;4.60;;;;;;;19.17;70.42;96589.97;5071507;28;20056;-70
2021/08/11 01:08:06;;;;;;;9.63;4.55;;;;;;;19.20;69.94;96594.75;5071378;28;20052;-70
2021/08/11 01:10:32;;;;;;;10.30;4.75;;;;;;;19.21;69.68;96590.03;5071789;28;20055;-70
2021/08/11 01:12:59;;;;;;;7.88;4.25;;;;;;;19.22;69.04;96594.41;5071840;28;20040;-69
2021/08/11 01:15:27;;;;;;;12.05;4.82;;;;;;;19.20;69.27;96593.94;5071222;28;20049;-70
2021/08/11 01:17:54;;;;;;;6.72;3.95;;;;;;;19.15;69.13;96597.03;5071597;28;20048;-69
2021/08/11 01:20:21;;;;;;;7.68;4.60;;;;;;;19.12;68.84;96592.25;5071170;28;20041;-70
2021/08/11 01:22:51;;;;;;;6.97;4.70;;;;;;;19.08;69.31;96596.91;5071655;28;20053;-69
2021/08/11 01:25:23;;;;;;;8.52;4.88;;;;;;;19.07;69.67;96584.28;5071111;28;20055;-70
2021/08/11 01:28:02;;;;;;;6.63;4.80;;;;;;;19.03;69.67;96590.50;5071517;28;20045;-69
2021/08/11 01:30:35;;;;;;;8.25;4.40;;;;;;;19.01;70.04;96590.09;5071147;28;20041;-70
2021/08/11 01:33:28;;;;;;;8.63;4.60;;;;;;;19.03;69.75;96589.72;5071342;28;20047;-70
2021/08/11 01:36:00;;;;;;;8.20;5.05;;;;;;;19.00;69.78;96591.25;5070414;28;20044;-70
2021/08/11 01:38:33;;;;;;;10.57;4.85;;;;;;;18.99;69.27;96588.84;5068238;28;20619;-70
2021/08/11 01:41:03;;;;;;;7.63;4.68;;;;;;;18.93;69.45;96593.88;5071176;28;20048;-70
2021/08/11 01:43:37;;;;;;;7.50;4.85;;;;;;;18.85;70.05;96589.41;5070884;28;20048;-70
2021/08/11 01:46:06;;;;;;;9.07;5.00;;;;;;;18.83;70.90;96600.00;5070944;28;20044;-70
2021/08/11 01:48:38;;;;;;;9.20;4.95;;;;;;;18.80;71.34;96597.97;5071150;28;20059;-70
2021/08/11 01:51:06;;;;;;;8.55;4.78;;;;;;;18.78;71.18;96594.78;5070292;28;20419;-70
2021/08/11 01:53:33;;;;;;;8.15;4.70;;;;;;;18.76;71.38;96597.13;5070840;28;20037;-70
2021/08/11 01:56:00;;;;;;;8.05;4.70;;;;;;;18.76;71.23;96592.38;5070895;28;20044;-70
2021/08/11 01:58:29;;;;;;;6.82;5.20;;;;;;;18.75;71.52;96595.53;5070858;28;20044;-70
2021/08/11 02:00:59;;;;;;;9.65;4.85;;;;;;;18.73;71.47;96592.31;5070665;28;20044;-70
2021/08/11 02:03:26;;;;;;;8.35;4.85;;;;;;;18.71;71.83;96584.41;5070357;28;20492;-69
2021/08/11 02:05:55;;;;;;;5.93;4.50;;;;;;;18.74;71.14;96589.22;5069813;28;20040;-70
2021/08/11 02:08:22;;;;;;;9.73;4.93;;;;;;;18.76;71.16;96589.63;5070308;28;20048;-70
2021/08/11 02:10:51;;;;;;;7.78;5.25;;;;;;;18.66;71.36;96592.16;5070614;28;20044;-70
2021/08/11 02:13:18;;;;;;;7.60;5.03;;;;;;;18.67;71.53;96583.50;5070376;28;20049;-70
2021/08/11 02:15:48;;;;;;;8.52;5.20;;;;;;;18.64;71.68;96577.94;5070833;28;20067;-70
2021/08/11 02:18:15;;;;;;;7.53;4.50;;;;;;;18.61;71.92;96581.41;5070394;28;20052;-70
2021/08/11 02:20:41;;;;;;;8.60;4.70;;;;;;;18.59;72.13;96581.78;5070803;28;20048;-70
2021/08/11 02:23:10;;;;;;;6.20;4.75;;;;;;;18.60;72.58;96588.09;5070200;28;20045;-70
2021/08/11 02:25:44;;;;;;;7.72;5.30;;;;;;;18.59;72.78;96592.03;5070683;28;20066;-70
2021/08/11 02:28:15;;;;;;;8.93;4.85;;;;;;;18.57;72.74;96594.34;5070157;28;20052;-69
2021/08/11 02:30:50;;;;;;;7.85;4.90;;;;;;;18.50;72.39;96593.03;5070290;28;20048;-70
2021/08/11 02:33:26;;;;;;;9.10;4.72;;;;;;;18.50;72.53;96582.00;5069985;28;20048;-70
2021/08/11 02:35:56;;;;;;;6.88;4.72;;;;;;;18.46;72.95;96586.66;5069360;28;20045;-70
2021/08/11 02:38:29;;;;;;;8.50;4.93;;;;;;;18.42;72.76;96588.53;5070038;28;20051;-70
2021/08/11 02:41:02;;;;;;;6.70;4.72;;;;;;;18.37;72.68;96591.56;5070555;28;20045;-69
2021/08/11 02:43:36;;;;;;;8.10;5.10;;;;;;;18.40;72.65;96585.34;5070251;28;20051;-70
2021/08/11 02:46:06;;;;;;;9.45;5.07;;;;;;;18.39;72.81;96589.28;5069998;28;20054;-71
2021/08/11 02:48:34;;;;;;;9.77;4.97;;;;;;;18.32;73.03;96594.63;5070705;28;20040;-70
2021/08/11 02:51:02;;;;;;;10.60;4.80;;;;;;;18.28;73.24;96599.28;5070480;28;20510;-69
2021/08/11 02:53:31;;;;;;;7.55;4.80;;;;;;;18.24;73.33;96592.88;5069746;28;20037;-69
2021/08/11 02:55:58;;;;;;;7.35;4.80;;;;;;;18.21;73.52;96599.13;5070498;28;20051;-70
2021/08/11 02:58:25;;;;;;;7.57;5.07;;;;;;;18.23;73.97;96602.31;5069887;28;20049;-70
2021/08/11 03:00:53;;;;;;;7.65;4.90;;;;;;;18.25;73.77;96602.75;5070590;28;20057;-69
2021/08/11 03:03:20;;;;;;;7.18;5.03;;;;;;;18.24;73.14;96598.41;5069814;28;20388;-69
2021/08/11 03:05:47;;;;;;;8.80;5.30;;;;;;;18.25;73.30;96600.00;5069893;28;20422;-69
2021/08/11 03:08:16;;;;;;;7.72;5.47;;;;;;;18.31;72.50;96609.56;5069722;28;20049;-69
2021/08/11 03:10:44;;;;;;;7.35;5.38;;;;;;;18.26;72.25;96599.63;5070314;28;20051;-69
2021/08/11 03:13:14;;;;;;;10.52;6.05;;;;;;;18.21;72.98;96599.91;5069814;28;20052;-69
2021/08/11 03:15:42;;;;;;;6.50;5.00;;;;;;;18.20;73.39;96605.78;5069873;28;20056;-70
2021/08/11 03:18:08;;;;;;;8.45;5.30;;;;;;;18.16;73.13;96594.69;5069493;28;20052;-70
2021/08/11 03:20:35;;;;;;;9.05;5.63;;;;;;;18.16;73.25;96588.38;5069886;28;20498;-69
2021/08/11 03:23:02;;;;;;;10.88;5.00;;;;;;;18.13;72.64;96594.63;5069835;28;20045;-71
2021/08/11 03:25:29;;;;;;;6.85;5.43;;;;;;;18.07;72.59;96587.81;5069757;28;20056;-70
2021/08/11 03:27:57;;;;;;;6.95;5.30;;;;;;;17.99;72.81;96593.13;5070094;28;20329;-69
2021/08/11 03:30:23;;;;;;;8.23;5.15;;;;;;;17.96;73.08;96598.59;5069674;28;20044;-70
2021/08/11 03:32:50;;;;;;;9.38;5.72;;;;;;;17.91;73.09;96596.91;5070181;28;20055;-70
2021/08/11 03:35:16;;;;;;;10.48;6.03;;;;;;;17.89;73.29;96593.69;5069095;28;20052;-70
2021/08/11 03:37:42;;;;;;;8.90;5.65;;;;;;;17.92;73.19;96584.72;5070064;28;20056;-69
2021/08/11 03:40:10;;;;;;;9.52;5.05;;;;;;;17.92;73.22;96587.47;5069427;28;20044;-69
2021/08/11 03:42:36;;;;;;;8.65;5.70;;;;;;;17.91;73.34;96585.91;5072064;28;20048;-69
2021/08/11 03:45:05;;;;;;;7.45;5.20;;;;;;;17.90;73.42;96584.28;5073021;28;20514;-70
2021/08/11 03:47:32;;;;;;;8.68;5.15;;;;;;;17.93;73.44;96593.78;5073367;28;20499;-70
2021/08/11 03:49:58;;;;;;;10.20;5.32;;;;;;;17.96;73.11;96595.84;5073188;28;20044;-70
2021/08/11 03:52:25;;;;;;;10.82;5.32;;;;;;;17.95;72.97;96592.25;5072791;28;20044;-70
2021/08/11 03:54:51;;;;;;;8.27;5.70;;;;;;;17.95;73.22;96592.25;5073374;28;20048;-69
2021/08/11 03:57:17;;;;;;;7.47;5.35;;;;;;;17.95;73.11;96595.00;5072746;28;20060;-69
2021/08/11 03:59:44;;;;;;;9.20;5.03;;;;;;;17.92;73.15;96587.47;5073105;28;20414;-69
2021/08/11 04:02:12;;;;;;;10.73;5.15;;;;;;;17.90;73.40;96589.78;5072605;28;20492;-70
2021/08/11 04:04:40;;;;;;;7.90;5.72;;;;;;;17.87;73.21;96596.03;5072655;28;20036;-70
2021/08/11 04:07:06;;;;;;;7.80;5.13;;;;;;;17.85;73.58;96600.28;5072643;28;20624;-70
2021/08/11 04:09:32;;;;;;;8.38;5.28;;;;;;;17.87;73.98;96604.28;5073146;28;20056;-70
2021/08/11 04:11:59;;;;;;;9.77;5.45;;;;;;;17.86;73.34;96599.94;5073180;28;20052;-71
2021/08/11 04:14:25;;;;;;;7.47;5.00;;;;;;;17.88;73.99;96603.13;5072612;28;20044;-70
2021/08/11 04:16:52;;;;;;;8.38;4.70;;;;;;;17.94;73.37;96612.72;5072979;28;20049;-69
2021/08/11 04:19:20;;;;;;;10.65;5.05;;;;;;;17.95;73.40;96608.00;5072413;28;20491;-70
2021/08/11 04:21:46;;;;;;;12.70;5.30;;;;;;;17.95;74.07;96611.53;5072466;28;20068;-69
2021/08/11 04:24:13;;;;;;;10.55;5.20;;;;;;;17.92;73.83;96608.72;5072182;28;20041;-70
2021/08/11 04:26:39;;;;;;;7.63;5.40;;;;;;;17.90;73.98;96617.34;5072746;28;20047;-69
2021/08/11 04:29:06;;;;;;;8.10;5.18;;;;;;;17.89;73.93;96621.25;5072301;28;20037;-70
2021/08/11 04:31:32;;;;;;;7.78;5.05;;;;;;;17.88;74.18;96614.16;5072748;28;20045;-70
2021/08/11 04:33:59;;;;;;;8.10;5.40;;;;;;;17.93;73.91;96618.59;5072456;28;20044;-70
2021/08/11 04:36:26;;;;;;;8.32;4.95;;;;;;;17.96;74.04;96620.63;5072122;28;20044;-70
2021/08/11 04:38:53;;;;;;;10.85;5.43;;;;;;;17.99;73.62;96615.19;5072643;28;20055;-69
2021/08/11 04:41:19;;;;;;;9.23;5.00;;;;;;;18.02;73.41;96623.91;5071586;28;20049;-70
2021/08/11 04:43:46;;;;;;;10.77;5.07;;;;;;;17.99;73.76;96617.94;5072466;28;20052;-69
2021/08/11 04:46:13;;;;;;;8.07;5.20;;;;;;;17.97;73.77;96617.50;5071661;28;20048;-70
2021/08/11 04:48:39;;;;;;;8.23;4.72;;;;;;;17.96;74.44;96615.13;5072392;28;20052;-70
2021/08/11 04:51:05;;;;;;;7.40;4.70;;;;;;;17.93;74.32;96627.66;5071761;28;20456;-69
2021/08/11 04:53:33;;;;;;;7.05;4.75;;;;;;;17.91;74.47;96626.41;5071691;28;20067;-70
2021/08/11 04:56:00;;;;;;;9.18;5.05;;;;;;;17.88;74.39;96633.44;5072356;28;20059;-69
2021/08/11 04:58:26;;;;;;;8.45;4.97;;;;;;;17.89;74.43;96632.28;5071747;28;20056;-70
2021/08/11 05:00:53;;;;;;;11.07;5.43;;;;;;;17.88;73.96;96625.16;5071947;28;20047;-69
2021/08/11 05:03:19;;;;;;;12.65;5.75;;;;;;;17.86;74.19;96627.50;5071539;28;20048;-69
2021/08/11 05:05:46;;;;;;;9.65;5.13;;;;;;;17.86;74.33;96629.47;5071640;28;20041;-69
2021/08/11 05:08:12;;;;;;;9.40;5.43;;;;;;;17.85;74.41;96634.13;5071595;28;20044;-69
2021/08/11 05:10:40;;;;;;;11.20;5.43;;;;;;;17.84;74.50;96632.53;5071840;28;20047;-69
2021/08/11 05:13:07;;;;;;;9.48;4.88;;;;;;;17.87;74.67;96629.09;5071240;28;20055;-70
2021/08/11 05:15:33;;;;;;;7.80;5.00;;;;;;;17.88;74.49;96627.91;5071449;28;20048;-69
2021/08/11 05:18:00;;;;;;;9.70;5.72;;;;;;;17.90;74.18;96627.56;5071775;28;20049;-70
2021/08/11 05:20:26;;;;;;;10.98;5.70;;;;;;;17.95;73.17;96625.31;5071042;28;20044;-69
2021/08/11 05:22:53;;;;;;;9.93;5.72;;;;;;;17.96;73.52;96621.44;5070650;28;20052;-70
2021/08/11 05:25:19;;;;;;;9.35;5.63;;;;;;;17.98;73.17;96630.13;5070820;28;20056;-69
2021/08/11 05:27:47;;;;;;;8.82;5.35;;;;;;;17.97;73.16;96623.03;5071334;28;20048;-69
2021/08/11 05:30:15;;;;;;;8.20;5.13;;;;;;;18.00;73.67;96630.56;5071117;28;20127;-71
2021/08/11 05:32:41;;;;;;;9.50;5.35;;;;;;;18.02;74.16;96624.72;5071333;28;20045;-69
2021/08/11 05:35:08;;;;;;;7.63;5.30;;;;;;;18.05;75.24;96628.69;5070449;28;20056;-69
2021/08/11 05:37:35;;;;;;;10.50;5.97;;;;;;;18.07;74.65;96632.69;5071541;28;20431;-69
2021/08/11 05:40:01;;;;;;;8.25;5.53;;;;;;;18.11;73.70;96632.75;5071448;28;20075;-69
2021/08/11 05:42:28;;;;;;;8.90;5.43;;;;;;;18.20;72.97;96636.09;5070663;28;20119;-69
2021/08/11 05:44:56;;;;;;;9.90;5.65;;;;;;;18.19;72.88;96632.56;5071148;28;20060;-69
2021/08/11 05:47:22;;;;;;;9.13;5.50;;;;;;;18.22;73.69;96633.81;5070151;28;20048;-69
2021/08/11 05:49:49;;;;;;;9.30;5.35;;;;;;;18.25;73.48;96627.56;5071114;28;20063;-69
2021/08/11 05:52:15;;;;;;;9.43;5.97;;;;;;;18.31;72.82;96631.63;5070181;28;20418;-69
2021/08/11 05:54:42;;;;;;;12.05;5.75;;;;;;;18.41;72.22;96641.28;5070928;28;20056;-69
2021/08/11 05:57:09;;;;;;;8.68;5.30;;;;;;;18.45;72.76;96631.13;5070642;28;20044;-69
2021/08/11 05:59:36;;;;;;;7.75;5.22;;;;;;;18.49;71.69;96632.81;5070666;28;20044;-70
2021/08/11 06:02:04;;;;;;;9.13;4.88;;;;;;;18.54;71.44;96636.44;5070718;28;20098;-71
2021/08/11 06:04:31;;;;;;;7.57;5.20;;;;;;;18.63;70.68;96637.00;5069837;28;20491;-70
2021/08/11 06:06:57;;;;;;;8.73;5.45;;;;;;;18.67;70.29;96635.13;5070662;28;20410;-70
2021/08/11 06:09:24;;;;;;;7.65;5.38;;;;;;;18.73;70.22;96636.44;5070416;28;20434;-70
2021/08/11 06:11:50;;;;;;;7.05;4.82;;;;;;;18.81;69.57;96631.88;5071142;28;20041;-70
2021/08/11 06:14:17;;;;;;;10.52;5.10;;;;;;;18.88;69.45;96630.03;5070045;28;20051;-70
2021/08/11 06:16:43;;;;;;;7.25;5.15;;;;;;;19.00;69.75;96640.13;5069694;28;20051;-70
2021/08/11 06:19:11;;;;;;;9.90;4.88;;;;;;;19.06;67.96;96635.13;5069949;28;20052;-71
2021/08/11 06:21:37;;;;;;;8.85;4.65;;;;;;;19.14;67.68;96636.84;5069526;28;20044;-71
2021/08/11 06:24:04;;;;;;;9.88;5.15;;;;;;;19.19;68.31;96633.78;5070243;28;20056;-71
2021/08/11 06:26:31;;;;;;;7.60;4.65;;;;;;;19.25;67.58;96635.06;5069956;28;20051;-71
2021/08/11 06:28:58;;;;;;;10.13;6.10;;;;;;;19.36;67.71;96638.00;5070419;28;20056;-71
2021/08/11 06:31:24;;;;;;;8.63;5.03;;;;;;;19.44;66.84;96642.50;5069921;28;20055;-71
2021/08/11 06:33:51;;;;;;;6.53;4.18;;;;;;;19.49;66.24;96640.22;5070509;28;20059;-71
2021/08/11 06:36:19;;;;;;;8.57;3.88;;;;;;;19.54;65.41;96642.69;5069999;28;20045;-71
2021/08/11 06:38:45;;;;;;;7.20;4.28;;;;;;;19.63;65.88;96639.69;5070818;28;20063;-71
2021/08/11 06:41:15;;;;;;;7.20;4.65;;;;;;;19.71;66.34;96640.59;5070272;28;20079;-71
2021/08/11 06:43:42;;;;;;;7.00;3.92;;;;;;;19.78;65.05;96641.53;5070829;28;20052;-73
2021/08/11 06:46:08;;;;;;;8.02;4.50;;;;;;;19.91;65.38;96639.34;5070095;28;20399;-71
2021/08/11 06:48:36;;;;;;;7.63;4.30;;;;;;;20.05;65.25;96639.56;5070683;28;20070;-71
2021/08/11 06:51:02;;;;;;;9.40;4.20;;;;;;;20.13;63.63;96634.13;5070106;28;20055;-71
2021/08/11 06:53:30;;;;;;;6.05;3.65;;;;;;;20.16;62.75;96636.94;5070544;28;20041;-71
2021/08/11 06:55:57;;;;;;;6.63;3.45;;;;;;;20.24;59.81;96641.41;5070533;28;20055;-73
2021/08/11 06:58:23;;;;;;;6.55;3.20;;;;;;;20.32;59.57;96643.09;5070071;28;20046;-73
2021/08/11 07:00:50;;;;;;;4.78;3.13;;;;;;;20.44;58.74;96646.81;5070584;28;20044;-73
2021/08/11 07:03:19;;;;;;;5.25;3.30;;;;;;;20.50;59.55;96651.66;5069966;28;20044;-72
2021/08/11 07:05:45;;;;;;;9.77;3.35;;;;;;;20.58;59.89;96644.25;5070043;28;20048;-72
2021/08/11 07:08:12;;;;;;;4.30;3.15;;;;;;;20.66;59.38;96640.41;5070086;28;20036;-73
2021/08/11 07:10:40;;;;;;;6.40;3.30;;;;;;;20.71;59.26;96636.50;5070283;28;20564;-72
2021/08/11 07:13:06;;;;;;;5.55;3.42;;;;;;;20.83;60.21;96641.81;5070057;28;20048;-72
2021/08/11 07:15:33;;;;;;;5.30;3.40;;;;;;;20.90;58.99;96646.63;5071002;28;20051;-72
2021/08/11 07:17:59;;;;;;;7.38;3.53;;;;;;;20.97;59.73;96643.91;5074079;28;20044;-72
2021/08/11 07:20:29;;;;;;;6.32;3.22;;;;;;;21.06;59.05;96647.97;5073540;28;20059;-72
2021/08/11 07:22:58;;;;;;;9.30;3.83;;;;;;;21.17;58.21;96644.53;5074066;28;20049;-73
2021/08/11 07:25:25;;;;;;;5.43;3.38;;;;;;;21.24;58.92;96650.13;5073469;28;20044;-72
2021/08/11 07:27:53;;;;;;;5.68;3.22;;;;;;;21.32;56.52;96651.84;5073819;28;20055;-72
2021/08/11 07:30:19;;;;;;;4.95;3.00;;;;;;;21.42;57.01;96653.91;5073439;28;20423;-72
2021/08/11 07:32:46;;;;;;;6.47;3.20;;;;;;;21.53;55.98;96660.34;5073785;28;20048;-72
2021/08/11 07:35:14;;;;;;;5.43;3.10;;;;;;;21.60;55.61;96651.28;5073094;28;20415;-72
2021/08/11 07:37:47;;;;;;;6.93;3.30;;;;;;;21.76;54.70;96651.03;5073866;28;20491;-73
2021/08/11 07:40:14;;;;;;;7.57;3.10;;;;;;;21.83;53.92;96646.34;5073040;28;20049;-72
2021/08/11 07:42:41;;;;;;;6.32;3.22;;;;;;;21.89;53.26;96649.56;5073651;28;20499;-72
2021/08/11 07:45:10;;;;;;;6.47;3.17;;;;;;;21.97;52.68;96650.41;5073180;28;20044;-73
2021/08/11 07:47:37;;;;;;;4.72;3.10;;;;;;;22.10;52.92;96660.00;5073606;28;20052;-72
2021/08/11 07:50:05;;;;;;;5.38;3.10;;;;;;;22.24;53.84;96645.47;5073057;28;20056;-73
2021/08/11 07:52:32;;;;;;;5.43;2.90;;;;;;;22.31;52.51;96649.09;5073386;28;20491;-73
2021/08/11 07:54:58;;;;;;;5.22;2.80;;;;;;;22.57;50.26;96648.03;5073567;28;20041;-73
2021/08/11 07:57:25;;;;;;;4.35;2.55;;;;;;;23.41;51.19;96653.50;5072966;28;20045;-73
2021/08/11 07:59:51;;;;;;;4.93;2.30;;;;;;;24.31;46.29;96659.88;5073495;28;20049;-72
2021/08/11 08:02:19;;;;;;;5.00;2.35;;;;;;;25.15;45.33;96658.03;5072754;28;20044;-70
2021/08/11 08:04:46;;;;;;;3.55;1.73;;;;;;;25.79;40.12;96645.72;5072837;28;20431;-72
2021/08/11 08:07:12;;;;;;;6.10;2.28;;;;;;;26.69;41.27;96649.22;5072675;28;20411;-72
2021/08/11 08:09:39;;;;;;;4.13;2.42;;;;;;;27.29;39.10;96644.88;5072912;28;20049;-72
2021/08/11 08:12:06;;;;;;;4.43;1.90;;;;;;;27.40;39.26;96644.72;5072809;28;20045;-73
2021/08/11 08:14:32;;;;;;;4.97;2.00;;;;;;;28.05;38.25;96650.16;5073069;28;20517;-72
2021/08/11 08:16:59;;;;;;;5.20;2.20;;;;;;;28.21;35.77;96653.06;5073160;28;20045;-72
2021/08/11 08:19:27;;;;;;;4.28;1.95;;;;;;;28.96;36.78;96650.91;5072473;28;20609;-73
2021/08/11 08:21:54;;;;;;;3.92;2.38;;;;;;;29.56;33.92;96648.81;5073143;28;20044;-72
2021/08/11 08:24:21;;;;;;;3.92;2.42;;;;;;;29.86;34.30;96654.13;5072418;28;20041;-72
2021/08/11 08:26:47;;;;;;;4.18;1.73;;;;;;;30.23;32.67;96652.03;5072622;28;20048;-73
2021/08/11 08:29:14;;;;;;;4.40;2.05;;;;;;;30.51;31.89;96656.09;5071754;28;20044;-72
2021/08/11 08:31:41;;;;;;;4.15;1.88;;;;;;;30.95;34.43;96650.88;5072697;28;20052;-72
2021/08/11 08:34:07;;;;;;;3.63;1.73;;;;;;;31.21;30.54;96657.34;5072160;28;20048;-71
2021/08/11 08:36:35;;;;;;;3.17;2.00;;;;;;;31.10;30.07;96656.88;5072884;28;20048;-73
2021/08/11 08:39:02;;;;;;;3.50;2.00;;;;;;;31.28;32.98;96651.56;5054675;28;20056;-71
2021/08/11 08:41:29;;;;;;;3.45;1.80;;;;;;;31.30;30.70;96649.06;5072491;28;20415;-71
2021/08/11 08:43:56;;;;;;;2.88;1.65;;;;;;;31.82;32.24;96650.69;5072596;28;20056;-70
2021/08/11 08:46:24;;;;;;;2.83;2.13;;;;;;;31.90;30.39;96652.06;5071593;28;20045;-71
2021/08/11 08:48:51;;;;;;;5.07;1.90;;;;;;;32.17;34.75;96647.97;5072640;28;20059;-71
2021/08/11 08:51:22;;;;;;;2.88;1.83;;;;;;;32.58;30.89;96644.16;5071905;28;20055;-72
2021/08/11 08:53:50;;;;;;;3.45;1.73;;;;;;;32.83;29.81;96645.25;5072420;28;20414;-72
2021/08/11 08:56:17;;;;;;;3.13;1.80;;;;;;;32.40;30.58;96638.34;5071907;28;20052;-73
2021/08/11 08:58:45;;;;;;;5.65;1.83;;;;;;;32.20;31.30;96647.03;5072261;28;20041;-72
2021/08/11 09:01:11;;;;;;;4.10;1.83;;;;;;;32.60;29.87;96646.50;5071822;28;20044;-73
2021/08/11 09:03:38;;;;;;;3.83;1.70;;;;;;;31.90;29.11;96640.78;5071998;28;20041;-73
2021/08/11 09:06:04;;;;;;;4.90;1.95;;;;;;;31.90;31.17;96642.81;5071705;28;20041;-72
2021/08/11 09:08:31;;;;;;;2.45;1.70;;;;;;;31.99;31.26;96644.94;5072047;28;20051;-73
2021/08/11 09:10:59;;;;;;;2.78;1.92;;;;;;;32.17;29.57;96636.69;5071996;28;20051;-72
2021/08/11 09:13:26;;;;;;;4.10;1.67;;;;;;;32.25;32.41;96638.00;5071431;28;20503;-72
2021/08/11 09:15:54;;;;;;;2.42;1.60;;;;;;;32.64;31.99;96635.91;5071956;28;20044;-72
2021/08/11 09:18:22;;;;;;;3.15;1.42;;;;;;;32.65;29.30;96637.47;5071306;28;20045;-72
2021/08/11 09:20:50;;;;;;;3.15;1.75;;;;;;;32.81;32.27;96633.66;5071995;28;20048;-73
2021/08/11 09:23:34;;;;;;;3.05;1.60;;;;;;;32.85;26.96;96631.50;5071213;28;20052;-73
2021/08/11 09:26:03;;;;;;;3.38;1.60;;;;;;;32.16;29.60;96640.75;5071728;28;20048;-73
2021/08/11 09:28:32;;;;;;;2.63;1.58;;;;;;;32.72;30.08;96632.34;5071461;28;20051;-73
2021/08/11 09:30:59;;;;;;;2.30;1.75;;;;;;;33.15;31.20;96638.44;5071563;28;20056;-73
2021/08/11 09:33:26;;;;;;;3.55;1.50;;;;;;;33.46;28.83;96638.50;5071031;28;20090;-71
2021/08/11 09:35:54;;;;;;;3.17;1.58;;;;;;;33.45;29.29;96634.88;5071390;28;20052;-71
2021/08/11 09:38:21;;;;;;;2.67;1.60;;;;;;;33.62;30.83;96623.34;5070856;28;20518;-72
2021/08/11 09:40:50;;;;;;;3.10;1.55;;;;;;;33.56;32.79;96630.88;5071294;28;20048;-73
2021/08/11 09:43:19;;;;;;;4.93;1.75;;;;;;;33.48;29.75;96625.50;5070797;28;20051;-73
2021/08/11 09:45:47;;;;;;;2.67;1.75;;;;;;;32.43;30.80;96629.75;5071471;28;20067;-70
2021/08/11 09:48:15;;;;;;;4.07;1.88;;;;;;;31.18;30.38;96618.88;5070924;28;20044;-70
2021/08/11 09:50:46;;;;;;;3.60;1.80;;;;;;;30.22;31.38;96627.94;5071357;28;20048;-73
2021/08/11 09:53:16;;;;;;;3.45;2.00;;;;;;;29.77;35.60;96617.44;5051043;28;20415;-71
2021/08/11 09:56:00;;;;;;;4.57;2.00;;;;;;;29.48;34.53;96617.28;5051317;28;20050;-71
2021/08/11 09:58:32;;;;;;;3.03;1.77;;;;;;;28.87;34.52;96620.63;5050935;28;20048;-70
2021/08/11 10:00:59;;;;;;;2.47;1.90;;;;;;;28.62;39.21;96626.72;5051276;28;20045;-73
2021/08/11 10:03:26;;;;;;;3.92;2.17;;;;;;;28.55;37.61;96621.25;5050692;28;20052;-73
2021/08/11 10:05:53;;;;;;;3.85;2.05;;;;;;;28.51;40.37;96626.16;5070874;28;20047;-73
2021/08/11 10:08:28;;;;;;;6.00;2.10;;;;;;;28.62;40.37;96621.13;5070497;28;20048;-71
2021/08/11 10:10:55;;;;;;;3.28;2.00;;;;;;;28.69;40.16;96615.38;5070964;28;20495;-71
2021/08/11 10:13:23;;;;;;;3.80;2.03;;;;;;;28.77;40.26;96614.03;5052657;28;20060;-71
2021/08/11 10:15:52;;;;;;;3.58;2.22;;;;;;;28.82;38.51;96613.53;5070988;28;20041;-71
2021/08/11 10:18:23;;;;;;;4.40;2.40;;;;;;;28.85;40.79;96618.25;5070472;28;20051;-71
2021/08/11 10:20:51;;;;;;;3.05;1.80;;;;;;;29.00;40.16;96612.38;5071007;28;20109;-73
2021/08/11 10:23:20;;;;;;;5.00;2.30;;;;;;;28.98;39.12;96606.41;5070381;28;20076;-71
2021/08/11 10:25:48;;;;;;;5.72;2.30;;;;;;;29.00;38.10;96613.16;5070922;28;20053;-73
2021/08/11 10:28:18;;;;;;;13.18;2.63;;;;;;;28.95;40.19;96615.69;5069760;28;20049;-71
2021/08/11 10:30:45;;;;;;;4.20;2.30;;;;;;;28.96;38.21;96617.25;5070369;28;20048;-71
2021/08/11 10:33:15;;;;;;;4.72;2.80;;;;;;;29.01;44.10;96608.34;5070048;28;20051;-71
2021/08/11 10:35:43;;;;;;;4.75;2.78;;;;;;;29.00;40.34;96606.75;5070566;28;20131;-73
2021/08/11 10:38:10;;;;;;;4.47;2.50;;;;;;;28.88;39.48;96608.19;5070264;28;20049;-71
2021/08/11 10:40:39;;;;;;;2.83;2.03;;;;;;;28.88;41.05;96610.22;5070545;28;20044;-71
2021/08/11 10:43:06;;;;;;;4.45;2.40;;;;;;;28.97;36.79;96602.00;5070084;28;20052;-72
2021/08/11 10:45:33;;;;;;;2.78;2.00;;;;;;;28.91;39.69;96598.91;5070675;28;20045;-73
2021/08/11 10:48:00;;;;;;;3.55;2.15;;;;;;;28.92;36.25;96594.09;5070532;28;20056;-72
2021/08/11 10:53:22;;;;;;;6.68;3.00;;;;;;;28.84;39.26;96594.25;5109906;27;20388;-73
2021/08/11 10:55:51;;;;;;;7.13;2.30;;;;;;;28.79;38.64;96603.16;5108612;28;20097;-73
2021/08/11 10:58:38;;;;;;;5.60;2.33;;;;;;;28.77;36.78;96605.63;5108204;28;20046;-73
2021/08/11 11:01:25;;;;;;;5.45;2.65;;;;;;;28.67;38.92;96601.00;5107960;28;20040;-71
2021/08/11 11:03:53;;;;;;;4.63;2.40;;;;;;;28.56;36.44;96597.66;5108364;28;20048;-73
2021/08/11 11:06:20;;;;;;;4.18;2.22;;;;;;;28.54;39.14;96606.47;5107851;28;20070;-73
2021/08/11 11:08:48;;;;;;;5.22;2.30;;;;;;;28.39;38.66;96602.34;5108508;28;20039;-72
2021/08/11 11:11:36;;;;;;;5.15;2.40;;;;;;;28.31;37.70;96600.88;5107693;28;20502;-72
2021/08/11 11:14:05;;;;;;;5.53;2.70;;;;;;;28.19;36.82;96604.28;5107869;28;20490;-73
2021/08/11 11:17:07;;;;;;;3.45;2.40;;;;;;;28.05;37.83;96599.75;5108166;28;20047;-72
2021/08/11 11:20:17;;;;;;;5.35;2.20;;;;;;;28.13;38.39;96609.59;5108290;28;20043;-72
2021/08/11 11:22:50;;;;;;;4.90;2.55;;;;;;;28.19;41.54;96607.09;5108157;28;20097;-72
2021/08/11 11:25:18;;;;;;;4.22;2.60;;;;;;;28.32;41.02;96597.66;5107917;28;20047;-73
2021/08/11 11:27:55;;;;;;;5.00;2.28;;;;;;;28.43;38.08;96596.69;5108469;28;20089;-72
2021/08/11 11:30:36;;;;;;;5.53;2.25;;;;;;;28.50;37.37;96607.75;5108017;28;20126;-73
2021/08/11 11:33:31;;;;;;;3.25;2.30;;;;;;;28.41;37.98;96599.13;5107613;28;20418;-72
2021/08/11 11:36:21;;;;;;;3.60;2.50;;;;;;;28.47;38.51;96600.22;5107792;28;20050;-73
2021/08/11 11:39:06;;;;;;;4.50;2.50;;;;;;;28.46;37.97;96590.25;5107987;28;20051;-73
2021/08/11 11:41:32;;;;;;;4.43;2.38;;;;;;;28.55;38.18;96587.63;5107819;28;20451;-72